sensor_id;sensor_type;location;lat;lon;timestamp;pressure;altitude;pressure_sealevel;temperature;humidity
71149;BME280;59072;42.144;25.200;2023-05-11T00:00:38;100596.78;;;9.39;100.00
71149;BME280;59072;42.144;25.200;2023-05-11T00:03:03;100604.09;;;9.23;100.00
71149;BME280;59072;42.144;25.200;2023-05-11T00:05:30;100602.59;;;9.21;100.00
71149;BME280;59072;42.144;25.200;2023-05-11T00:07:55;100602.44;;;9.22;100.00
71149;BME280;59072;42.144;25.200;2023-05-11T00:10:21;100591.69;;;9.09;100.00
71149;BME280;59072;42.144;25.200;2023-05-11T00:12:46;100604.03;;;9.17;100.00
71149;BME280;59072;42.144;25.200;2023-05-11T00:15:12;100599.94;;;9.21;100.00
71149;BME280;59072;42.144;25.200;2023-05-11T00:17:37;100604.31;;;8.94;100.00
71149;BME280;59072;42.144;25.200;2023-05-11T00:20:02;100596.13;;;8.95;100.00
71149;BME280;59072;42.144;25.200;2023-05-11T00:22:28;100599.94;;;9.21;100.00
71149;BME280;59072;42.144;25.200;2023-05-11T00:24:54;100605.22;;;9.08;100.00
71149;BME280;59072;42.144;25.200;2023-05-11T00:27:19;100603.38;;;9.08;100.00
71149;BME280;59072;42.144;25.200;2023-05-11T00:29:44;100599.91;;;9.14;100.00
71149;BME280;59072;42.144;25.200;2023-05-11T00:32:10;100603.97;;;9.03;100.00
71149;BME280;59072;42.144;25.200;2023-05-11T00:34:35;100601.34;;;9.10;100.00
71149;BME280;59072;42.144;25.200;2023-05-11T00:37:01;100598.31;;;9.20;100.00
71149;BME280;59072;42.144;25.200;2023-05-11T00:39:27;100601.16;;;9.12;100.00
71149;BME280;59072;42.144;25.200;2023-05-11T00:41:52;100615.41;;;9.04;100.00
71149;BME280;59072;42.144;25.200;2023-05-11T00:44:18;100612.47;;;8.92;100.00
71149;BME280;59072;42.144;25.200;2023-05-11T00:46:43;100593.94;;;9.05;100.00
71149;BME280;59072;42.144;25.200;2023-05-11T00:49:09;100603.28;;;8.95;100.00
71149;BME280;59072;42.144;25.200;2023-05-11T00:51:35;100600.28;;;9.04;100.00
71149;BME280;59072;42.144;25.200;2023-05-11T00:54:00;100600.72;;;9.08;100.00
71149;BME280;59072;42.144;25.200;2023-05-11T00:56:26;100608.44;;;9.03;100.00
71149;BME280;59072;42.144;25.200;2023-05-11T00:58:52;100609.50;;;9.09;100.00
71149;BME280;59072;42.144;25.200;2023-05-11T01:01:17;100616.38;;;8.96;100.00
71149;BME280;59072;42.144;25.200;2023-05-11T01:03:43;100606.63;;;9.03;100.00
71149;BME280;59072;42.144;25.200;2023-05-11T01:06:26;100595.69;;;8.63;100.00
71149;BME280;59072;42.144;25.200;2023-05-11T01:09:02;100614.34;;;8.70;100.00
71149;BME280;59072;42.144;25.200;2023-05-11T01:11:50;100595.50;;;8.65;100.00
71149;BME280;59072;42.144;25.200;2023-05-11T01:16:55;100613.50;;;8.63;100.00
71149;BME280;59072;42.144;25.200;2023-05-11T01:22:14;100620.06;;;8.67;100.00
71149;BME280;59072;42.144;25.200;2023-05-11T01:25:00;100597.75;;;8.40;100.00
71149;BME280;59072;42.144;25.200;2023-05-11T01:30:28;100611.47;;;8.65;100.00
71149;BME280;59072;42.144;25.200;2023-05-11T01:32:59;100622.53;;;8.69;100.00
71149;BME280;59072;42.144;25.200;2023-05-11T01:35:28;100630.22;;;8.57;100.00
71149;BME280;59072;42.144;25.200;2023-05-11T01:37:58;100630.16;;;8.50;100.00
71149;BME280;59072;42.144;25.200;2023-05-11T01:40:26;100633.50;;;8.59;100.00
71149;BME280;59072;42.144;25.200;2023-05-11T01:43:06;100608.44;;;8.03;100.00
71149;BME280;59072;42.144;25.200;2023-05-11T01:45:35;100623.88;;;8.36;100.00
71149;BME280;59072;42.144;25.200;2023-05-11T01:48:05;100620.34;;;8.51;100.00
71149;BME280;59072;42.144;25.200;2023-05-11T01:50:31;100625.66;;;8.51;100.00
71149;BME280;59072;42.144;25.200;2023-05-11T01:52:57;100620.25;;;8.65;100.00
71149;BME280;59072;42.144;25.200;2023-05-11T01:55:24;100605.16;;;8.44;100.00
71149;BME280;59072;42.144;25.200;2023-05-11T01:57:52;100599.72;;;8.53;100.00
71149;BME280;59072;42.144;25.200;2023-05-11T02:00:17;100612.19;;;8.52;100.00
71149;BME280;59072;42.144;25.200;2023-05-11T02:02:43;100611.22;;;8.38;100.00
71149;BME280;59072;42.144;25.200;2023-05-11T02:05:15;100586.66;;;8.36;100.00
71149;BME280;59072;42.144;25.200;2023-05-11T02:07:44;100602.75;;;8.50;100.00
71149;BME280;59072;42.144;25.200;2023-05-11T02:10:11;100607.81;;;8.44;100.00
71149;BME280;59072;42.144;25.200;2023-05-11T02:12:39;100591.59;;;8.18;100.00
71149;BME280;59072;42.144;25.200;2023-05-11T02:15:06;100612.84;;;8.39;100.00
71149;BME280;59072;42.144;25.200;2023-05-11T02:17:34;100600.91;;;8.29;100.00
71149;BME280;59072;42.144;25.200;2023-05-11T02:20:00;100604.75;;;8.26;100.00
71149;BME280;59072;42.144;25.200;2023-05-11T02:22:28;100614.41;;;8.49;100.00
71149;BME280;59072;42.144;25.200;2023-05-11T02:24:55;100592.19;;;8.56;100.00
71149;BME280;59072;42.144;25.200;2023-05-11T02:27:20;100608.25;;;8.76;100.00
71149;BME280;59072;42.144;25.200;2023-05-11T02:29:46;100607.00;;;8.72;100.00
71149;BME280;59072;42.144;25.200;2023-05-11T02:32:16;100608.38;;;8.40;100.00
71149;BME280;59072;42.144;25.200;2023-05-11T02:34:45;100611.69;;;8.42;100.00
71149;BME280;59072;42.144;25.200;2023-05-11T02:37:23;100607.66;;;8.31;100.00
71149;BME280;59072;42.144;25.200;2023-05-11T02:39:55;100593.81;;;8.36;100.00
71149;BME280;59072;42.144;25.200;2023-05-11T02:42:22;100604.63;;;8.34;100.00
71149;BME280;59072;42.144;25.200;2023-05-11T02:45:03;100608.63;;;8.23;100.00
71149;BME280;59072;42.144;25.200;2023-05-11T02:47:32;100608.44;;;8.03;100.00
71149;BME280;59072;42.144;25.200;2023-05-11T02:50:00;100596.09;;;8.17;100.00
71149;BME280;59072;42.144;25.200;2023-05-11T02:52:26;100607.28;;;8.13;100.00
71149;BME280;59072;42.144;25.200;2023-05-11T02:54:53;100604.31;;;8.22;100.00
71149;BME280;59072;42.144;25.200;2023-05-11T02:57:20;100606.41;;;8.27;100.00
71149;BME280;59072;42.144;25.200;2023-05-11T02:59:46;100610.22;;;8.18;100.00
71149;BME280;59072;42.144;25.200;2023-05-11T03:02:12;100616.28;;;8.12;100.00
71149;BME280;59072;42.144;25.200;2023-05-11T03:04:38;100608.31;;;8.12;100.00
71149;BME280;59072;42.144;25.200;2023-05-11T03:07:04;100605.34;;;8.21;100.00
71149;BME280;59072;42.144;25.200;2023-05-11T03:09:31;100628.09;;;8.31;100.00
71149;BME280;59072;42.144;25.200;2023-05-11T03:11:57;100627.41;;;8.22;100.00
71149;BME280;59072;42.144;25.200;2023-05-11T03:14:23;100617.25;;;8.25;100.00
71149;BME280;59072;42.144;25.200;2023-05-11T03:16:50;100629.94;;;8.30;100.00
71149;BME280;59072;42.144;25.200;2023-05-11T03:19:16;100629.03;;;8.23;100.00
71149;BME280;59072;42.144;25.200;2023-05-11T03:21:42;100620.16;;;7.94;100.00
71149;BME280;59072;42.144;25.200;2023-05-11T03:24:09;100628.59;;;7.98;100.00
71149;BME280;59072;42.144;25.200;2023-05-11T03:26:35;100628.72;;;7.90;100.00
71149;BME280;59072;42.144;25.200;2023-05-11T03:29:01;100631.41;;;8.11;100.00
71149;BME280;59072;42.144;25.200;2023-05-11T03:31:27;100621.78;;;8.10;100.00
71149;BME280;59072;42.144;25.200;2023-05-11T03:33:53;100629.69;;;8.03;100.00
71149;BME280;59072;42.144;25.200;2023-05-11T03:36:20;100629.97;;;7.94;100.00
71149;BME280;59072;42.144;25.200;2023-05-11T03:38:47;100636.84;;;7.88;100.00
71149;BME280;59072;42.144;25.200;2023-05-11T03:41:14;100639.66;;;8.23;100.00
71149;BME280;59072;42.144;25.200;2023-05-11T03:43:41;100650.31;;;8.23;100.00
71149;BME280;59072;42.144;25.200;2023-05-11T03:46:10;100649.44;;;8.16;100.00
71149;BME280;59072;42.144;25.200;2023-05-11T03:48:38;100649.13;;;8.25;100.00
71149;BME280;59072;42.144;25.200;2023-05-11T03:51:05;100650.19;;;8.31;100.00
71149;BME280;59072;42.144;25.200;2023-05-11T03:53:31;100636.78;;;8.18;100.00
71149;BME280;59072;42.144;25.200;2023-05-11T03:55:57;100642.97;;;8.25;100.00
71149;BME280;59072;42.144;25.200;2023-05-11T03:58:22;100635.00;;;8.03;100.00
71149;BME280;59072;42.144;25.200;2023-05-11T04:00:48;100643.72;;;8.19;100.00
71149;BME280;59072;42.144;25.200;2023-05-11T04:03:13;100645.09;;;8.15;100.00
71149;BME280;59072;42.144;25.200;2023-05-11T04:05:40;100642.59;;;8.28;100.00
71149;BME280;59072;42.144;25.200;2023-05-11T04:08:05;100642.91;;;8.18;100.00
71149;BME280;59072;42.144;25.200;2023-05-11T04:10:31;100634.75;;;8.20;100.00
71149;BME280;59072;42.144;25.200;2023-05-11T04:12:57;100647.28;;;8.48;100.00
71149;BME280;59072;42.144;25.200;2023-05-11T04:15:22;100648.06;;;8.41;100.00
71149;BME280;59072;42.144;25.200;2023-05-11T04:17:48;100650.59;;;8.50;100.00
71149;BME280;59072;42.144;25.200;2023-05-11T04:20:14;100647.16;;;8.77;100.00
71149;BME280;59072;42.144;25.200;2023-05-11T04:22:39;100657.53;;;9.00;100.00
71149;BME280;59072;42.144;25.200;2023-05-11T04:25:05;100653.78;;;8.88;100.00
71149;BME280;59072;42.144;25.200;2023-05-11T04:27:33;100638.28;;;8.70;100.00
71149;BME280;59072;42.144;25.200;2023-05-11T04:30:00;100657.97;;;9.04;100.00
71149;BME280;59072;42.144;25.200;2023-05-11T04:32:25;100645.78;;;9.16;100.00
71149;BME280;59072;42.144;25.200;2023-05-11T04:34:51;100650.41;;;9.36;100.00
71149;BME280;59072;42.144;25.200;2023-05-11T04:37:16;100645.78;;;9.16;100.00
71149;BME280;59072;42.144;25.200;2023-05-11T04:39:41;100660.81;;;9.31;100.00
71149;BME280;59072;42.144;25.200;2023-05-11T04:42:07;100663.78;;;9.14;100.00
71149;BME280;59072;42.144;25.200;2023-05-11T04:44:32;100655.50;;;9.02;100.00
71149;BME280;59072;42.144;25.200;2023-05-11T04:46:58;100653.03;;;9.01;100.00
71149;BME280;59072;42.144;25.200;2023-05-11T04:49:23;100662.81;;;8.94;100.00
71149;BME280;59072;42.144;25.200;2023-05-11T04:51:49;100657.00;;;9.40;100.00
71149;BME280;59072;42.144;25.200;2023-05-11T04:54:14;100672.09;;;9.33;100.00
71149;BME280;59072;42.144;25.200;2023-05-11T04:56:40;100660.97;;;9.22;100.00
71149;BME280;59072;42.144;25.200;2023-05-11T04:59:06;100672.28;;;9.31;100.00
71149;BME280;59072;42.144;25.200;2023-05-11T05:01:31;100657.56;;;9.35;100.00
71149;BME280;59072;42.144;25.200;2023-05-11T05:03:57;100666.06;;;9.52;100.00
71149;BME280;59072;42.144;25.200;2023-05-11T05:06:23;100667.16;;;9.64;100.00
71149;BME280;59072;42.144;25.200;2023-05-11T05:08:48;100671.44;;;10.14;100.00
71149;BME280;59072;42.144;25.200;2023-05-11T05:11:13;100665.06;;;10.21;100.00
71149;BME280;59072;42.144;25.200;2023-05-11T05:13:39;100671.44;;;10.27;100.00
71149;BME280;59072;42.144;25.200;2023-05-11T05:16:05;100655.25;;;10.22;100.00
71149;BME280;59072;42.144;25.200;2023-05-11T05:18:30;100669.22;;;10.31;100.00
71149;BME280;59072;42.144;25.200;2023-05-11T05:20:56;100664.31;;;10.48;100.00
71149;BME280;59072;42.144;25.200;2023-05-11T05:23:21;100676.25;;;10.65;100.00
71149;BME280;59072;42.144;25.200;2023-05-11T05:25:47;100674.00;;;10.69;100.00
71149;BME280;59072;42.144;25.200;2023-05-11T05:28:12;100675.63;;;11.16;100.00
71149;BME280;59072;42.144;25.200;2023-05-11T05:30:37;100671.69;;;11.32;99.21
71149;BME280;59072;42.144;25.200;2023-05-11T05:33:03;100667.81;;;11.08;98.60
71149;BME280;59072;42.144;25.200;2023-05-11T05:35:28;100674.13;;;11.47;100.00
71149;BME280;59072;42.144;25.200;2023-05-11T05:37:54;100674.69;;;11.56;97.98
71149;BME280;59072;42.144;25.200;2023-05-11T05:40:19;100651.63;;;11.10;98.59
71149;BME280;59072;42.144;25.200;2023-05-11T05:42:45;100668.84;;;11.20;99.64
71149;BME280;59072;42.144;25.200;2023-05-11T05:45:10;100666.69;;;11.56;98.24
71149;BME280;59072;42.144;25.200;2023-05-11T05:47:36;100660.06;;;11.72;97.46
71149;BME280;59072;42.144;25.200;2023-05-11T05:50:02;100668.59;;;12.00;95.71
71149;BME280;59072;42.144;25.200;2023-05-11T05:52:28;100660.84;;;11.79;96.88
71149;BME280;59072;42.144;25.200;2023-05-11T05:54:53;100676.81;;;12.05;95.12
71149;BME280;59072;42.144;25.200;2023-05-11T05:57:18;100677.06;;;12.29;93.00
71149;BME280;59072;42.144;25.200;2023-05-11T05:59:44;100679.34;;;11.80;97.94
71149;BME280;59072;42.144;25.200;2023-05-11T06:02:09;100676.50;;;12.20;97.11
71149;BME280;59072;42.144;25.200;2023-05-11T06:04:37;100683.50;;;11.70;97.00
71149;BME280;59072;42.144;25.200;2023-05-11T06:07:02;100687.38;;;11.74;98.24
71149;BME280;59072;42.144;25.200;2023-05-11T06:09:28;100681.97;;;11.29;98.25
71149;BME280;59072;42.144;25.200;2023-05-11T06:11:53;100681.91;;;11.55;97.77
71149;BME280;59072;42.144;25.200;2023-05-11T06:14:19;100685.66;;;11.34;98.03
71149;BME280;59072;42.144;25.200;2023-05-11T06:16:46;100682.91;;;11.54;97.23
71149;BME280;59072;42.144;25.200;2023-05-11T06:19:12;100696.53;;;11.33;98.07
71149;BME280;59072;42.144;25.200;2023-05-11T06:21:37;100690.84;;;11.81;97.10
71149;BME280;59072;42.144;25.200;2023-05-11T06:24:05;100694.31;;;11.88;97.35
71149;BME280;59072;42.144;25.200;2023-05-11T06:26:31;100692.59;;;12.14;94.28
71149;BME280;59072;42.144;25.200;2023-05-11T06:28:56;100694.78;;;12.30;93.95
71149;BME280;59072;42.144;25.200;2023-05-11T06:31:22;100681.19;;;11.93;94.97
71149;BME280;59072;42.144;25.200;2023-05-11T06:33:48;100684.69;;;11.87;96.41
71149;BME280;59072;42.144;25.200;2023-05-11T06:36:14;100690.84;;;11.94;97.78
71149;BME280;59072;42.144;25.200;2023-05-11T06:38:39;100688.34;;;11.99;96.73
71149;BME280;59072;42.144;25.200;2023-05-11T06:41:05;100676.47;;;12.27;95.05
71149;BME280;59072;42.144;25.200;2023-05-11T06:43:31;100665.09;;;12.38;93.97
71149;BME280;59072;42.144;25.200;2023-05-11T06:45:57;100689.19;;;12.63;93.45
71149;BME280;59072;42.144;25.200;2023-05-11T06:48:22;100683.47;;;12.28;92.32
71149;BME280;59072;42.144;25.200;2023-05-11T06:50:50;100679.28;;;12.39;91.13
71149;BME280;59072;42.144;25.200;2023-05-11T06:53:15;100683.56;;;12.46;89.63
71149;BME280;59072;42.144;25.200;2023-05-11T06:55:42;100687.72;;;12.42;90.48
71149;BME280;59072;42.144;25.200;2023-05-11T06:58:08;100690.03;;;12.32;87.31
71149;BME280;59072;42.144;25.200;2023-05-11T07:00:33;100687.72;;;12.42;86.83
71149;BME280;59072;42.144;25.200;2023-05-11T07:02:59;100684.25;;;12.67;85.62
71149;BME280;59072;42.144;25.200;2023-05-11T07:05:24;100683.53;;;12.78;86.35
71149;BME280;59072;42.144;25.200;2023-05-11T07:07:50;100688.19;;;12.90;86.26
71149;BME280;59072;42.144;25.200;2023-05-11T07:10:16;100680.84;;;12.78;82.52
71149;BME280;59072;42.144;25.200;2023-05-11T07:12:41;100688.91;;;12.46;83.82
71149;BME280;59072;42.144;25.200;2023-05-11T07:15:07;100692.00;;;12.75;84.62
71149;BME280;59072;42.144;25.200;2023-05-11T07:17:33;100692.06;;;12.94;84.01
71149;BME280;59072;42.144;25.200;2023-05-11T07:19:58;100688.84;;;13.03;81.89
71149;BME280;59072;42.144;25.200;2023-05-11T07:22:23;100697.06;;;13.09;80.70
71149;BME280;59072;42.144;25.200;2023-05-11T07:24:49;100687.47;;;13.19;81.27
71149;BME280;59072;42.144;25.200;2023-05-11T07:27:14;100692.75;;;13.33;78.67
71149;BME280;59072;42.144;25.200;2023-05-11T07:29:40;100689.41;;;13.12;77.55
71149;BME280;59072;42.144;25.200;2023-05-11T07:32:05;100685.03;;;13.43;77.94
71149;BME280;59072;42.144;25.200;2023-05-11T07:34:31;100677.22;;;13.60;75.26
71149;BME280;59072;42.144;25.200;2023-05-11T07:36:57;100676.16;;;14.10;72.89
71149;BME280;59072;42.144;25.200;2023-05-11T07:39:22;100679.25;;;13.95;73.52
71149;BME280;59072;42.144;25.200;2023-05-11T07:41:48;100674.88;;;13.82;74.05
71149;BME280;59072;42.144;25.200;2023-05-11T07:44:13;100664.22;;;13.94;73.74
71149;BME280;59072;42.144;25.200;2023-05-11T07:46:39;100674.94;;;14.24;72.25
71149;BME280;59072;42.144;25.200;2023-05-11T07:49:05;100678.66;;;14.53;72.75
71149;BME280;59072;42.144;25.200;2023-05-11T07:51:30;100682.97;;;14.54;71.26
71149;BME280;59072;42.144;25.200;2023-05-11T07:53:56;100678.34;;;14.31;73.88
71149;BME280;59072;42.144;25.200;2023-05-11T07:56:21;100660.00;;;14.16;71.00
71149;BME280;59072;42.144;25.200;2023-05-11T07:58:47;100667.25;;;14.58;72.03
71149;BME280;59072;42.144;25.200;2023-05-11T08:01:12;100668.94;;;15.06;70.52
71149;BME280;59072;42.144;25.200;2023-05-11T08:03:38;100679.78;;;14.99;66.69
71149;BME280;59072;42.144;25.200;2023-05-11T08:06:03;100682.06;;;15.55;67.13
71149;BME280;59072;42.144;25.200;2023-05-11T08:08:29;100672.69;;;15.81;62.00
71149;BME280;59072;42.144;25.200;2023-05-11T08:10:55;100682.34;;;15.30;65.28
71149;BME280;59072;42.144;25.200;2023-05-11T08:13:21;100675.94;;;15.31;65.80
71149;BME280;59072;42.144;25.200;2023-05-11T08:15:46;100669.84;;;15.35;62.84
71149;BME280;59072;42.144;25.200;2023-05-11T08:18:12;100667.97;;;15.47;61.23
71149;BME280;59072;42.144;25.200;2023-05-11T08:20:38;100654.94;;;15.04;61.19
71149;BME280;59072;42.144;25.200;2023-05-11T08:23:06;100670.16;;;15.51;59.14
71149;BME280;59072;42.144;25.200;2023-05-11T08:25:32;100657.06;;;15.54;60.38
71149;BME280;59072;42.144;25.200;2023-05-11T08:27:59;100662.81;;;15.58;64.21
71149;BME280;59072;42.144;25.200;2023-05-11T08:30:24;100653.50;;;15.13;62.83
71149;BME280;59072;42.144;25.200;2023-05-11T08:32:50;100660.22;;;15.75;59.19
71149;BME280;59072;42.144;25.200;2023-05-11T08:35:15;100641.56;;;16.14;59.33
71149;BME280;59072;42.144;25.200;2023-05-11T08:37:41;100660.03;;;16.22;58.79
71149;BME280;59072;42.144;25.200;2023-05-11T08:40:09;100655.50;;;16.39;55.47
71149;BME280;59072;42.144;25.200;2023-05-11T08:42:39;100648.91;;;16.64;55.83
71149;BME280;59072;42.144;25.200;2023-05-11T08:45:05;100663.19;;;16.64;55.92
71149;BME280;59072;42.144;25.200;2023-05-11T08:47:32;100656.56;;;16.72;55.41
71149;BME280;59072;42.144;25.200;2023-05-11T08:49:58;100655.34;;;16.63;54.90
71149;BME280;59072;42.144;25.200;2023-05-11T08:52:24;100640.97;;;16.40;56.57
71149;BME280;59072;42.144;25.200;2023-05-11T08:54:49;100638.66;;;16.32;58.17
71149;BME280;59072;42.144;25.200;2023-05-11T08:57:15;100637.94;;;15.91;57.31
71149;BME280;59072;42.144;25.200;2023-05-11T08:59:45;100641.75;;;16.86;55.55
71149;BME280;59072;42.144;25.200;2023-05-11T09:02:15;100641.56;;;17.32;52.25
71149;BME280;59072;42.144;25.200;2023-05-11T09:04:42;100643.53;;;17.37;54.12
71149;BME280;59072;42.144;25.200;2023-05-11T09:07:10;100643.41;;;17.10;52.18
71149;BME280;59072;42.144;25.200;2023-05-11T09:09:36;100646.00;;;17.21;51.24
71149;BME280;59072;42.144;25.200;2023-05-11T09:12:01;100647.28;;;17.80;52.13
71149;BME280;59072;42.144;25.200;2023-05-11T09:14:28;100660.69;;;18.19;50.56
71149;BME280;59072;42.144;25.200;2023-05-11T09:16:53;100657.94;;;17.25;50.48
71149;BME280;59072;42.144;25.200;2023-05-11T09:19:19;100646.00;;;17.21;52.04
71149;BME280;59072;42.144;25.200;2023-05-11T09:21:46;100652.09;;;16.95;50.17
71149;BME280;59072;42.144;25.200;2023-05-11T09:24:12;100649.47;;;17.00;52.22
71149;BME280;59072;42.144;25.200;2023-05-11T09:26:37;100647.22;;;17.31;50.29
71149;BME280;59072;42.144;25.200;2023-05-11T09:29:03;100643.91;;;17.45;49.27
71149;BME280;59072;42.144;25.200;2023-05-11T09:31:45;100638.38;;;18.01;47.92
71149;BME280;59072;42.144;25.200;2023-05-11T09:36:41;100621.56;;;17.94;48.97
71149;BME280;59072;42.144;25.200;2023-05-11T09:39:07;100623.22;;;18.60;48.44
71149;BME280;59072;42.144;25.200;2023-05-11T09:41:33;100615.13;;;18.92;44.28
71149;BME280;59072;42.144;25.200;2023-05-11T09:44:12;100594.97;;;18.40;46.54
71149;BME280;59072;42.144;25.200;2023-05-11T09:46:40;100611.91;;;17.98;45.02
71149;BME280;59072;42.144;25.200;2023-05-11T09:49:06;100612.59;;;18.48;46.23
71149;BME280;59072;42.144;25.200;2023-05-11T09:51:34;100599.00;;;18.70;43.51
71149;BME280;59072;42.144;25.200;2023-05-11T09:54:14;100593.06;;;17.81;47.05
71149;BME280;59072;42.144;25.200;2023-05-11T09:59:10;100605.31;;;18.48;50.42
71149;BME280;59072;42.144;25.200;2023-05-11T10:01:37;100604.69;;;18.74;46.37
71149;BME280;59072;42.144;25.200;2023-05-11T10:04:03;100605.66;;;18.57;44.53
71149;BME280;59072;42.144;25.200;2023-05-11T10:06:46;100590.44;;;18.83;46.72
71149;BME280;59072;42.144;25.200;2023-05-11T10:09:13;100594.25;;;18.82;46.03
71149;BME280;59072;42.144;25.200;2023-05-11T10:11:44;100593.38;;;18.44;46.92
71149;BME280;59072;42.144;25.200;2023-05-11T10:14:12;100591.22;;;18.41;45.45
71149;BME280;59072;42.144;25.200;2023-05-11T10:16:40;100597.38;;;18.37;46.92
71149;BME280;59072;42.144;25.200;2023-05-11T10:19:06;100591.94;;;18.32;45.51
71149;BME280;59072;42.144;25.200;2023-05-11T10:21:33;100595.97;;;18.99;47.07
71149;BME280;59072;42.144;25.200;2023-05-11T10:24:00;100571.09;;;19.70;43.03
71149;BME280;59072;42.144;25.200;2023-05-11T10:26:27;100595.06;;;19.41;43.98
71149;BME280;59072;42.144;25.200;2023-05-11T10:28:54;100600.47;;;19.41;44.36
71149;BME280;59072;42.144;25.200;2023-05-11T10:31:20;100568.72;;;19.89;42.96
71149;BME280;59072;42.144;25.200;2023-05-11T10:33:49;100586.81;;;19.73;42.19
71149;BME280;59072;42.144;25.200;2023-05-11T10:36:16;100584.53;;;19.44;40.95
71149;BME280;59072;42.144;25.200;2023-05-11T10:38:42;100567.41;;;19.23;43.23
71149;BME280;59072;42.144;25.200;2023-05-11T10:41:20;100566.03;;;18.68;43.69
71149;BME280;59072;42.144;25.200;2023-05-11T10:59:13;100567.97;;;18.78;44.34
71149;BME280;59072;42.144;25.200;2023-05-11T11:01:41;100560.25;;;18.54;43.64
71149;BME280;59072;42.144;25.200;2023-05-11T11:04:09;100547.97;;;18.74;46.08
71149;BME280;59072;42.144;25.200;2023-05-11T11:06:39;100542.31;;;19.38;44.16
71149;BME280;59072;42.144;25.200;2023-05-11T11:14:04;100551.34;;;18.54;43.47
71149;BME280;59072;42.144;25.200;2023-05-11T11:16:34;100532.81;;;18.67;43.27
71149;BME280;59072;42.144;25.200;2023-05-11T11:21:53;100545.66;;;18.98;43.30
71149;BME280;59072;42.144;25.200;2023-05-11T11:27:07;100552.22;;;18.64;44.21
71149;BME280;59072;42.144;25.200;2023-05-11T11:29:34;100525.19;;;18.59;43.32
71149;BME280;59072;42.144;25.200;2023-05-11T11:34:44;100534.16;;;19.23;44.46
71149;BME280;59072;42.144;25.200;2023-05-11T11:37:12;100529.53;;;19.13;44.18
71149;BME280;59072;42.144;25.200;2023-05-11T11:44:38;100535.69;;;19.72;40.50
71149;BME280;59072;42.144;25.200;2023-05-11T11:47:09;100537.59;;;19.97;39.31
71149;BME280;59072;42.144;25.200;2023-05-11T11:49:36;100522.66;;;19.68;40.38
71149;BME280;59072;42.144;25.200;2023-05-11T11:52:03;100518.47;;;19.20;40.43
71149;BME280;59072;42.144;25.200;2023-05-11T11:54:41;100516.63;;;19.36;40.02
71149;BME280;59072;42.144;25.200;2023-05-11T12:02:30;100507.78;;;20.58;36.16
71149;BME280;59072;42.144;25.200;2023-05-11T12:05:00;100505.63;;;20.04;38.53
71149;BME280;59072;42.144;25.200;2023-05-11T12:07:32;100504.28;;;19.91;37.42
71149;BME280;59072;42.144;25.200;2023-05-11T12:09:58;100491.00;;;19.64;37.25
71149;BME280;59072;42.144;25.200;2023-05-11T12:12:26;100510.44;;;19.45;37.66
71149;BME280;59072;42.144;25.200;2023-05-11T12:14:52;100500.09;;;19.17;38.58
71149;BME280;59072;42.144;25.200;2023-05-11T12:17:27;100492.25;;;19.31;38.60
71149;BME280;59072;42.144;25.200;2023-05-11T12:19:54;100492.25;;;19.25;39.41
71149;BME280;59072;42.144;25.200;2023-05-11T12:22:24;100483.53;;;19.03;39.09
71149;BME280;59072;42.144;25.200;2023-05-11T12:24:50;100484.75;;;19.58;38.86
71149;BME280;59072;42.144;25.200;2023-05-11T12:27:19;100482.84;;;19.48;38.37
71149;BME280;59072;42.144;25.200;2023-05-11T12:29:49;100478.78;;;19.46;39.10
71149;BME280;59072;42.144;25.200;2023-05-11T12:32:24;100459.91;;;19.87;40.06
71149;BME280;59072;42.144;25.200;2023-05-11T12:35:02;100467.72;;;20.14;37.97
71149;BME280;59072;42.144;25.200;2023-05-11T12:37:29;100466.66;;;19.90;37.44
71149;BME280;59072;42.144;25.200;2023-05-11T12:39:56;100464.50;;;20.02;39.12
71149;BME280;59072;42.144;25.200;2023-05-11T12:42:21;100458.25;;;19.60;38.16
71149;BME280;59072;42.144;25.200;2023-05-11T12:44:47;100456.09;;;19.62;40.06
71149;BME280;59072;42.144;25.200;2023-05-11T12:47:13;100455.72;;;19.13;40.15
71149;BME280;59072;42.144;25.200;2023-05-11T12:49:40;100447.72;;;18.75;39.83
71149;BME280;59072;42.144;25.200;2023-05-11T12:52:06;100458.59;;;18.85;39.56
71149;BME280;59072;42.144;25.200;2023-05-11T12:54:40;100433.84;;;19.24;39.34
71149;BME280;59072;42.144;25.200;2023-05-11T12:57:21;100452.28;;;19.68;38.40
71149;BME280;59072;42.144;25.200;2023-05-11T12:59:47;100456.09;;;20.14;38.78
71149;BME280;59072;42.144;25.200;2023-05-11T13:02:17;100450.69;;;20.14;38.03
71149;BME280;59072;42.144;25.200;2023-05-11T13:04:45;100442.06;;;19.86;38.20
71149;BME280;59072;42.144;25.200;2023-05-11T13:07:11;100427.69;;;19.91;37.00
71149;BME280;59072;42.144;25.200;2023-05-11T13:09:38;100423.81;;;20.38;38.58
71149;BME280;59072;42.144;25.200;2023-05-11T13:14:32;100431.25;;;21.32;34.75
71149;BME280;59072;42.144;25.200;2023-05-11T13:16:58;100441.91;;;22.26;32.79
71149;BME280;59072;42.144;25.200;2023-05-11T13:19:27;100408.25;;;22.22;34.97
71149;BME280;59072;42.144;25.200;2023-05-11T13:21:53;100404.63;;;20.94;35.21
71149;BME280;59072;42.144;25.200;2023-05-11T13:24:20;100427.78;;;20.71;36.03
71149;BME280;59072;42.144;25.200;2023-05-11T13:26:45;100429.47;;;20.62;36.62
71149;BME280;59072;42.144;25.200;2023-05-11T13:29:11;100427.66;;;20.06;36.83
71149;BME280;59072;42.144;25.200;2023-05-11T13:31:43;100417.59;;;20.32;38.82
71149;BME280;59072;42.144;25.200;2023-05-11T13:34:09;100426.75;;;20.52;37.44